Stratton, Nebraska
Current Conditions -  °F | °C
As of 8:53 AM on Thursday 30 Oct 2014 (Local Time) from KIML Reporting Station
Clear Clear  
Wind Chill: 35°   Ceiling: Unl
Heat Index: 42°   Visibility: 10mi
Dew Point: 27°   Wind: 13mph
Humidity: 55%   Direction: 320°NW
Pressure: 30.27"   Gusts: NA
Location:  40.15°N, 101.23°W
Report Text: KIML 301353Z AUTO 32011KT 10SM CLR 06/M03 A3027 RMK AO2 SLP250 T00561028
Loading
Personal Weather Stations






























Interactive Weather Map
Tropical Storm Tracking
New forecast layout! Learn more

10-Day Weather Forecast

Advertisements
Track Severe Weather on mobile